sensor_id;sensor_type;location;lat;lon;timestamp;temperature;humidity
72646;DHT22;60687;53.876;10.674;2023-07-20T00:02:16;15.10;97.30
72646;DHT22;60687;53.876;10.674;2023-07-20T00:12:20;15.10;97.20
72646;DHT22;60687;53.876;10.674;2023-07-20T00:22:23;15.10;97.20
72646;DHT22;60687;53.876;10.674;2023-07-20T00:32:26;15.10;97.20
72646;DHT22;60687;53.876;10.674;2023-07-20T00:42:31;15.10;97.50
72646;DHT22;60687;53.876;10.674;2023-07-20T00:52:35;15.10;97.40
72646;DHT22;60687;53.876;10.674;2023-07-20T01:02:40;15.10;97.50
72646;DHT22;60687;53.876;10.674;2023-07-20T01:12:47;15.10;97.80
72646;DHT22;60687;53.876;10.674;2023-07-20T01:23:06;15.10;98.00
72646;DHT22;60687;53.876;10.674;2023-07-20T01:33:17;15.00;98.50
72646;DHT22;60687;53.876;10.674;2023-07-20T01:43:20;15.00;98.50
72646;DHT22;60687;53.876;10.674;2023-07-20T01:53:24;14.90;98.90
72646;DHT22;60687;53.876;10.674;2023-07-20T02:03:26;14.90;99.00
72646;DHT22;60687;53.876;10.674;2023-07-20T02:13:31;14.90;99.00
72646;DHT22;60687;53.876;10.674;2023-07-20T02:23:33;14.90;99.00
72646;DHT22;60687;53.876;10.674;2023-07-20T02:33:37;14.90;99.00
72646;DHT22;60687;53.876;10.674;2023-07-20T02:43:39;14.90;99.10
72646;DHT22;60687;53.876;10.674;2023-07-20T02:53:43;14.90;99.10
72646;DHT22;60687;53.876;10.674;2023-07-20T03:03:45;14.90;99.10
72646;DHT22;60687;53.876;10.674;2023-07-20T03:13:49;14.90;99.50
72646;DHT22;60687;53.876;10.674;2023-07-20T03:23:52;14.90;99.50
72646;DHT22;60687;53.876;10.674;2023-07-20T03:33:56;14.90;99.40
72646;DHT22;60687;53.876;10.674;2023-07-20T03:43:58;14.90;99.70
72646;DHT22;60687;53.876;10.674;2023-07-20T03:54:02;14.90;99.40
72646;DHT22;60687;53.876;10.674;2023-07-20T04:04:07;14.90;99.50
72646;DHT22;60687;53.876;10.674;2023-07-20T04:14:11;14.90;99.40
72646;DHT22;60687;53.876;10.674;2023-07-20T04:24:13;14.90;99.10
72646;DHT22;60687;53.876;10.674;2023-07-20T04:34:17;15.00;99.20
72646;DHT22;60687;53.876;10.674;2023-07-20T04:44:20;15.00;99.40
72646;DHT22;60687;53.876;10.674;2023-07-20T04:54:24;15.00;98.80
72646;DHT22;60687;53.876;10.674;2023-07-20T05:04:29;15.00;98.90
72646;DHT22;60687;53.876;10.674;2023-07-20T05:14:33;15.10;98.50
72646;DHT22;60687;53.876;10.674;2023-07-20T05:24:35;15.20;98.60
72646;DHT22;60687;53.876;10.674;2023-07-20T05:34:39;15.30;98.40
72646;DHT22;60687;53.876;10.674;2023-07-20T05:44:42;15.40;98.10
72646;DHT22;60687;53.876;10.674;2023-07-20T05:54:45;15.60;97.20
72646;DHT22;60687;53.876;10.674;2023-07-20T06:04:47;15.70;97.20
72646;DHT22;60687;53.876;10.674;2023-07-20T06:14:53;15.90;96.30
72646;DHT22;60687;53.876;10.674;2023-07-20T06:24:55;16.10;95.40
72646;DHT22;60687;53.876;10.674;2023-07-20T06:34:58;16.40;94.90
72646;DHT22;60687;53.876;10.674;2023-07-20T06:45:01;16.60;93.10
72646;DHT22;60687;53.876;10.674;2023-07-20T06:55:07;16.80;92.60
72646;DHT22;60687;53.876;10.674;2023-07-20T07:05:10;16.90;90.60
72646;DHT22;60687;53.876;10.674;2023-07-20T07:15:15;17.20;91.10
72646;DHT22;60687;53.876;10.674;2023-07-20T07:25:18;17.40;85.50
72646;DHT22;60687;53.876;10.674;2023-07-20T07:35:22;17.40;87.70
72646;DHT22;60687;53.876;10.674;2023-07-20T07:45:24;17.60;83.10
72646;DHT22;60687;53.876;10.674;2023-07-20T07:55:28;17.60;83.10
72646;DHT22;60687;53.876;10.674;2023-07-20T08:05:30;17.80;85.10
72646;DHT22;60687;53.876;10.674;2023-07-20T08:15:34;18.00;80.10
72646;DHT22;60687;53.876;10.674;2023-07-20T08:25:37;18.00;79.50
72646;DHT22;60687;53.876;10.674;2023-07-20T08:35:44;18.20;74.80
72646;DHT22;60687;53.876;10.674;2023-07-20T08:45:46;18.30;73.80
72646;DHT22;60687;53.876;10.674;2023-07-20T08:55:51;18.50;72.00
72646;DHT22;60687;53.876;10.674;2023-07-20T09:05:54;18.70;71.40
72646;DHT22;60687;53.876;10.674;2023-07-20T09:15:58;18.80;68.20
72646;DHT22;60687;53.876;10.674;2023-07-20T09:26:01;18.30;82.20
72646;DHT22;60687;53.876;10.674;2023-07-20T09:36:12;18.40;86.50
72646;DHT22;60687;53.876;10.674;2023-07-20T09:46:15;18.50;84.80
72646;DHT22;60687;53.876;10.674;2023-07-20T09:56:21;18.80;80.60
72646;DHT22;60687;53.876;10.674;2023-07-20T10:06:25;18.40;87.20
72646;DHT22;60687;53.876;10.674;2023-07-20T10:16:34;18.50;91.50
72646;DHT22;60687;53.876;10.674;2023-07-20T10:26:37;18.50;90.20
72646;DHT22;60687;53.876;10.674;2023-07-20T10:36:45;18.40;90.60
72646;DHT22;60687;53.876;10.674;2023-07-20T10:46:58;18.50;90.40
72646;DHT22;60687;53.876;10.674;2023-07-20T10:57:24;18.90;82.60
72646;DHT22;60687;53.876;10.674;2023-07-20T11:07:37;18.40;83.20
72646;DHT22;60687;53.876;10.674;2023-07-20T11:17:41;18.00;89.60
72646;DHT22;60687;53.876;10.674;2023-07-20T11:27:45;18.40;90.90
72646;DHT22;60687;53.876;10.674;2023-07-20T11:37:50;18.50;83.60
72646;DHT22;60687;53.876;10.674;2023-07-20T11:47:53;18.30;84.80
72646;DHT22;60687;53.876;10.674;2023-07-20T11:58:04;18.10;83.30
72646;DHT22;60687;53.876;10.674;2023-07-20T12:08:07;18.10;84.30
72646;DHT22;60687;53.876;10.674;2023-07-20T12:18:11;18.50;85.10
72646;DHT22;60687;53.876;10.674;2023-07-20T12:28:15;18.80;80.10
72646;DHT22;60687;53.876;10.674;2023-07-20T12:38:19;19.10;68.80
72646;DHT22;60687;53.876;10.674;2023-07-20T12:48:21;19.40;66.50
72646;DHT22;60687;53.876;10.674;2023-07-20T12:58:25;19.50;67.70
72646;DHT22;60687;53.876;10.674;2023-07-20T13:08:27;19.80;67.40
72646;DHT22;60687;53.876;10.674;2023-07-20T13:18:31;19.80;66.80
72646;DHT22;60687;53.876;10.674;2023-07-20T13:28:33;19.60;69.20
72646;DHT22;60687;53.876;10.674;2023-07-20T13:38:37;19.10;68.90
72646;DHT22;60687;53.876;10.674;2023-07-20T13:48:39;18.90;69.90
72646;DHT22;60687;53.876;10.674;2023-07-20T13:58:43;18.80;72.80
72646;DHT22;60687;53.876;10.674;2023-07-20T14:08:45;18.70;74.80
72646;DHT22;60687;53.876;10.674;2023-07-20T14:18:51;18.50;77.60
72646;DHT22;60687;53.876;10.674;2023-07-20T14:28:53;18.30;82.60
72646;DHT22;60687;53.876;10.674;2023-07-20T14:38:56;18.10;82.90
72646;DHT22;60687;53.876;10.674;2023-07-20T14:48:59;18.10;85.50
72646;DHT22;60687;53.876;10.674;2023-07-20T14:59:03;18.20;84.80
72646;DHT22;60687;53.876;10.674;2023-07-20T15:09:06;18.40;84.70
72646;DHT22;60687;53.876;10.674;2023-07-20T15:19:11;18.50;85.00
72646;DHT22;60687;53.876;10.674;2023-07-20T15:29:14;18.70;83.20
72646;DHT22;60687;53.876;10.674;2023-07-20T15:39:18;18.60;80.00
72646;DHT22;60687;53.876;10.674;2023-07-20T15:49:21;18.50;86.00
72646;DHT22;60687;53.876;10.674;2023-07-20T15:59:26;18.50;82.00
72646;DHT22;60687;53.876;10.674;2023-07-20T16:09:28;18.50;83.40
72646;DHT22;60687;53.876;10.674;2023-07-20T16:19:32;18.50;84.40
72646;DHT22;60687;53.876;10.674;2023-07-20T16:29:34;18.30;78.40
72646;DHT22;60687;53.876;10.674;2023-07-20T16:39:38;18.20;78.60
72646;DHT22;60687;53.876;10.674;2023-07-20T16:49:41;18.20;77.50
72646;DHT22;60687;53.876;10.674;2023-07-20T16:59:44;18.20;75.80
72646;DHT22;60687;53.876;10.674;2023-07-20T17:09:47;18.10;77.10
72646;DHT22;60687;53.876;10.674;2023-07-20T17:19:51;18.00;79.60
72646;DHT22;60687;53.876;10.674;2023-07-20T17:29:54;18.00;78.70
72646;DHT22;60687;53.876;10.674;2023-07-20T17:40:08;18.00;74.60
72646;DHT22;60687;53.876;10.674;2023-07-20T17:50:11;17.90;70.70
72646;DHT22;60687;53.876;10.674;2023-07-20T18:00:17;17.80;74.60
72646;DHT22;60687;53.876;10.674;2023-07-20T18:10:19;17.70;73.50
72646;DHT22;60687;53.876;10.674;2023-07-20T18:20:23;17.60;75.20
72646;DHT22;60687;53.876;10.674;2023-07-20T18:30:25;17.50;74.90
72646;DHT22;60687;53.876;10.674;2023-07-20T18:40:35;17.50;76.40
72646;DHT22;60687;53.876;10.674;2023-07-20T18:50:38;17.40;77.10
72646;DHT22;60687;53.876;10.674;2023-07-20T19:00:41;17.40;77.20
72646;DHT22;60687;53.876;10.674;2023-07-20T19:10:43;17.20;78.20
72646;DHT22;60687;53.876;10.674;2023-07-20T19:20:47;17.10;78.40
72646;DHT22;60687;53.876;10.674;2023-07-20T19:30:50;17.10;79.60
72646;DHT22;60687;53.876;10.674;2023-07-20T19:40:54;17.00;79.90
72646;DHT22;60687;53.876;10.674;2023-07-20T19:50:56;16.90;81.20
72646;DHT22;60687;53.876;10.674;2023-07-20T20:01:00;16.80;81.40
72646;DHT22;60687;53.876;10.674;2023-07-20T20:11:02;16.70;81.70
72646;DHT22;60687;53.876;10.674;2023-07-20T20:21:06;16.60;83.30
72646;DHT22;60687;53.876;10.674;2023-07-20T20:31:11;16.60;83.00
72646;DHT22;60687;53.876;10.674;2023-07-20T20:41:15;16.50;84.30
72646;DHT22;60687;53.876;10.674;2023-07-20T20:51:17;16.30;85.10
72646;DHT22;60687;53.876;10.674;2023-07-20T21:01:20;16.20;85.20
72646;DHT22;60687;53.876;10.674;2023-07-20T21:11:23;16.00;86.20
72646;DHT22;60687;53.876;10.674;2023-07-20T21:21:26;15.90;87.80
72646;DHT22;60687;53.876;10.674;2023-07-20T21:31:29;15.60;88.60
72646;DHT22;60687;53.876;10.674;2023-07-20T21:41:32;15.60;88.70
72646;DHT22;60687;53.876;10.674;2023-07-20T21:51:34;15.50;89.40
72646;DHT22;60687;53.876;10.674;2023-07-20T22:01:38;15.50;89.10
72646;DHT22;60687;53.876;10.674;2023-07-20T22:11:40;15.40;89.30
72646;DHT22;60687;53.876;10.674;2023-07-20T22:21:44;15.40;89.60
72646;DHT22;60687;53.876;10.674;2023-07-20T22:31:46;15.30;90.00
72646;DHT22;60687;53.876;10.674;2023-07-20T22:41:51;15.20;90.40
72646;DHT22;60687;53.876;10.674;2023-07-20T22:51:53;15.10;90.30
72646;DHT22;60687;53.876;10.674;2023-07-20T23:01:57;15.10;90.70
72646;DHT22;60687;53.876;10.674;2023-07-20T23:11:59;15.00;90.50
72646;DHT22;60687;53.876;10.674;2023-07-20T23:22:05;14.90;90.80
72646;DHT22;60687;53.876;10.674;2023-07-20T23:32:07;14.80;91.10
72646;DHT22;60687;53.876;10.674;2023-07-20T23:42:11;14.70;91.60
72646;DHT22;60687;53.876;10.674;2023-07-20T23:52:14;14.60;91.50
